Time;durP1;ratioP1;P1;durP2;ratioP2;P2;SDS_P1;SDS_P2;PMS_P1;PMS_P2;Temp;Humidity;BMP_temperature;BMP_pressure;BME280_temperature;BME280_humidity;BME280_pressure;Samples;Min_cycle;Max_cycle;Signal;HPM_P1;HPM_P2
2022/07/14 00:01:45;;;;;;;5.90;1.80;;;;;14.20;97696.80;;;;111424;1245;41611;-72
2022/07/14 00:04:15;;;;;;;3.70;1.80;;;;;14.20;97699.20;;;;111185;1247;41642;-71
2022/07/14 00:06:44;;;;;;;5.40;2.00;;;;;14.20;97697.40;;;;111155;1248;40726;-74
2022/07/14 00:09:14;;;;;;;4.70;1.90;;;;;14.20;97694.20;;;;111438;1247;41609;-74
2022/07/14 00:11:43;;;;;;;6.10;2.00;;;;;14.20;97693.80;;;;111065;1250;41269;-72
2022/07/14 00:14:12;;;;;;;7.70;2.20;;;;;14.20;97691.00;;;;111436;1247;41189;-73
2022/07/14 00:16:42;;;;;;;5.80;2.40;;;;;14.20;97693.00;;;;111208;1247;41152;-72
2022/07/14 00:19:12;;;;;;;5.90;2.30;;;;;14.20;97695.20;;;;111543;1246;41152;-73
2022/07/14 00:21:43;;;;;;;8.40;2.30;;;;;14.18;97701.60;;;;111368;1247;42124;-72
2022/07/14 00:24:13;;;;;;;7.00;2.30;;;;;14.10;97704.40;;;;111332;1245;41289;-72
2022/07/14 00:26:42;;;;;;;6.00;2.30;;;;;14.10;97703.20;;;;111288;1247;41676;-73
2022/07/14 00:29:12;;;;;;;4.70;2.10;;;;;14.10;97707.80;;;;111353;1244;41133;-73
2022/07/14 00:31:42;;;;;;;5.40;2.20;;;;;14.10;97704.20;;;;111227;1248;41254;-74
2022/07/14 00:34:12;;;;;;;7.50;2.50;;;;;14.00;97705.20;;;;111342;1247;41180;-74
2022/07/14 00:36:42;;;;;;;5.20;2.20;;;;;13.92;97706.40;;;;111381;1246;41351;-73
2022/07/14 00:39:13;;;;;;;5.10;2.40;;;;;13.90;97710.00;;;;111180;1246;41719;-74
2022/07/14 00:41:42;;;;;;;6.70;2.70;;;;;13.90;97712.00;;;;111422;1245;41759;-75
2022/07/14 00:44:13;;;;;;;4.40;1.90;;;;;13.90;97709.60;;;;111269;1247;41151;-72
2022/07/14 00:46:43;;;;;;;5.00;2.10;;;;;13.80;97709.00;;;;111550;1247;41245;-74
2022/07/14 00:49:13;;;;;;;4.10;1.80;;;;;13.80;97704.80;;;;111302;1247;41185;-73
2022/07/14 00:51:43;;;;;;;4.00;1.80;;;;;13.78;97707.20;;;;111028;1247;41261;-73
2022/07/14 00:54:25;;;;;;;4.00;1.60;;;;;13.70;97708.60;;;;111254;1248;41719;-73
2022/07/14 00:56:54;;;;;;;4.20;1.90;;;;;13.70;97710.60;;;;111438;1246;41290;-73
2022/07/14 00:59:25;;;;;;;4.20;1.70;;;;;13.64;97709.40;;;;111390;1246;41256;-72
2022/07/14 01:01:55;;;;;;;5.10;1.90;;;;;13.60;97707.60;;;;111205;1247;41145;-73
2022/07/14 01:04:25;;;;;;;3.20;1.90;;;;;13.60;97708.80;;;;111290;1247;41218;-74
2022/07/14 01:06:55;;;;;;;4.70;1.60;;;;;13.60;97709.60;;;;111153;1247;41702;-73
2022/07/14 01:09:24;;;;;;;5.90;2.30;;;;;13.60;97711.40;;;;111082;1249;41245;-73
2022/07/14 01:11:55;;;;;;;5.20;2.00;;;;;13.60;97725.40;;;;111139;1248;41138;-73
2022/07/14 01:14:28;;;;;;;4.40;1.80;;;;;13.50;97724.20;;;;111174;1247;41153;-75
2022/07/14 01:16:57;;;;;;;4.20;2.00;;;;;13.50;97726.60;;;;111185;1247;41189;-73
2022/07/14 01:19:28;;;;;;;4.30;1.90;;;;;13.40;97718.20;;;;111311;1246;41783;-74
2022/07/14 01:21:58;;;;;;;4.10;1.80;;;;;13.40;97722.00;;;;111163;1249;41133;-73
2022/07/14 01:24:30;;;;;;;3.90;2.00;;;;;13.40;97724.20;;;;111178;1248;41180;-73
2022/07/14 01:27:01;;;;;;;6.60;2.50;;;;;13.32;97720.60;;;;111254;1248;41318;-73
2022/07/14 01:29:31;;;;;;;4.50;2.10;;;;;13.30;97716.00;;;;111480;1247;41136;-75
2022/07/14 01:32:00;;;;;;;6.60;2.30;;;;;13.30;97721.00;;;;111211;1247;41198;-75
2022/07/14 01:34:30;;;;;;;4.50;2.10;;;;;13.20;97727.80;;;;111288;1247;43288;-74
2022/07/14 01:37:00;;;;;;;3.30;1.90;;;;;13.10;97731.00;;;;111265;1247;41143;-73
2022/07/14 01:39:30;;;;;;;4.20;1.90;;;;;13.00;97733.40;;;;111379;1247;41716;-74
2022/07/14 01:42:00;;;;;;;3.80;1.70;;;;;13.00;97731.80;;;;111432;1246;41147;-73
2022/07/14 01:44:31;;;;;;;4.30;1.80;;;;;13.00;97732.40;;;;111318;1247;42465;-73
2022/07/14 01:47:02;;;;;;;5.20;1.70;;;;;13.00;97726.00;;;;111139;1247;41515;-73
2022/07/14 01:49:34;;;;;;;2.80;1.60;;;;;13.00;97724.40;;;;111228;1247;41709;-74
2022/07/14 01:52:07;;;;;;;4.60;2.00;;;;;13.00;97724.00;;;;111199;1247;41582;-73
2022/07/14 01:54:40;;;;;;;3.20;1.80;;;;;12.94;97731.40;;;;111166;1247;41260;-75
2022/07/14 01:57:10;;;;;;;6.40;2.20;;;;;12.90;97734.20;;;;111208;1247;41148;-73
2022/07/14 01:59:40;;;;;;;6.70;2.20;;;;;12.90;97723.80;;;;111221;1247;41377;-73
2022/07/14 02:02:11;;;;;;;;;;;;;12.90;97723.80;;;;111510;1247;41712;-73
2022/07/14 02:04:41;;;;;;;;;;;;;12.90;97726.00;;;;111214;1247;41312;-73
2022/07/14 02:07:12;;;;;;;3.70;2.00;;;;;12.86;97729.40;;;;111192;1248;42504;-71
2022/07/14 02:12:39;;;;;;;5.00;2.20;;;;;12.88;97730.20;;;;111035;1250;41185;-73
2022/07/14 02:15:11;;;;;;;6.00;2.20;;;;;12.80;97733.60;;;;111202;1247;41157;-73
2022/07/14 02:17:41;;;;;;;4.90;2.20;;;;;12.70;97738.20;;;;111117;1247;42459;-73
2022/07/14 02:20:11;;;;;;;5.40;2.30;;;;;12.68;97746.80;;;;111088;1247;41455;-73
2022/07/14 02:22:41;;;;;;;;;;;;;12.60;97743.20;;;;111444;1247;41132;-73
2022/07/14 02:25:12;;;;;;;3.20;1.70;;;;;12.60;97744.40;;;;111144;1247;41150;-73
2022/07/14 02:27:42;;;;;;;5.30;1.90;;;;;12.56;97740.20;;;;111189;1249;42194;-74
2022/07/14 02:30:13;;;;;;;3.80;1.80;;;;;12.58;97741.60;;;;111353;1247;41187;-74
2022/07/14 02:32:44;;;;;;;3.70;1.70;;;;;12.60;97745.20;;;;111422;1247;41910;-73
2022/07/14 02:35:16;;;;;;;2.70;1.50;;;;;12.60;97749.60;;;;111305;1247;41352;-74
2022/07/14 02:37:46;;;;;;;5.60;1.80;;;;;12.60;97754.80;;;;111195;1247;41124;-74
2022/07/14 02:40:16;;;;;;;3.50;1.60;;;;;12.60;97755.20;;;;111001;1248;41045;-74
2022/07/14 02:42:46;;;;;;;3.70;1.90;;;;;12.60;97753.00;;;;111487;1245;41616;-75
2022/07/14 02:45:16;;;;;;;5.10;1.90;;;;;12.60;97750.40;;;;111143;1248;41402;-74
2022/07/14 02:47:46;;;;;;;3.90;1.90;;;;;12.60;97751.00;;;;110986;1249;41162;-73
2022/07/14 02:50:17;;;;;;;5.80;2.40;;;;;12.60;97765.60;;;;111273;1248;41184;-73
2022/07/14 02:52:48;;;;;;;5.10;2.20;;;;;12.62;97767.00;;;;111556;1245;41246;-74
2022/07/14 02:55:18;;;;;;;5.20;1.90;;;;;12.60;97771.40;;;;111194;1246;41145;-74
2022/07/14 02:57:50;;;;;;;3.20;1.70;;;;;12.60;97774.80;;;;111336;1247;41744;-73
2022/07/14 03:00:21;;;;;;;4.60;1.90;;;;;12.60;97770.80;;;;111276;1248;41365;-71
2022/07/14 03:02:52;;;;;;;4.20;1.80;;;;;12.60;97775.20;;;;111232;1247;41606;-73
2022/07/14 03:05:23;;;;;;;5.10;2.00;;;;;12.60;97776.80;;;;111337;1247;41150;-73
2022/07/14 03:07:52;;;;;;;3.00;1.70;;;;;12.60;97776.80;;;;111072;1248;41435;-75
2022/07/14 03:10:22;;;;;;;6.20;2.10;;;;;12.60;97776.40;;;;111149;1247;41655;-74
2022/07/14 03:12:52;;;;;;;7.20;2.10;;;;;12.64;97781.20;;;;111129;1248;41405;-76
2022/07/14 03:15:22;;;;;;;6.10;2.40;;;;;12.70;97780.60;;;;111193;1248;41355;-74
2022/07/14 03:17:51;;;;;;;6.50;2.10;;;;;12.70;97776.40;;;;111206;1247;41174;-75
2022/07/14 03:20:21;;;;;;;3.30;1.80;;;;;12.72;97775.40;;;;111354;1247;41901;-75
2022/07/14 03:22:51;;;;;;;4.50;1.90;;;;;12.80;97776.20;;;;111229;1247;41702;-74
2022/07/14 03:25:23;;;;;;;6.50;1.80;;;;;12.80;97779.40;;;;111088;1248;41188;-73
2022/07/14 03:27:54;;;;;;;2.80;1.60;;;;;12.80;97779.20;;;;111117;1248;41739;-75
2022/07/14 03:30:27;;;;;;;4.40;2.00;;;;;12.90;97783.20;;;;111203;1247;42035;-76
2022/07/14 03:32:57;;;;;;;5.70;2.30;;;;;12.90;97781.40;;;;111153;1250;41191;-74
2022/07/14 03:35:27;;;;;;;6.00;2.50;;;;;12.90;97772.80;;;;111083;1248;41605;-73
2022/07/14 03:37:57;;;;;;;4.30;2.00;;;;;12.90;97777.20;;;;111049;1248;40862;-74
2022/07/14 03:40:49;;;;;;;3.80;1.80;;;;;12.90;97777.40;;;;111139;1247;41166;-74
2022/07/14 03:43:20;;;;;;;4.30;2.00;;;;;12.90;97775.60;;;;111026;1249;41623;-74
2022/07/14 03:45:49;;;;;;;6.20;2.30;;;;;12.90;97769.60;;;;111035;1250;41248;-74
2022/07/14 03:48:21;;;;;;;4.80;2.00;;;;;12.90;97773.80;;;;111075;1247;41261;-74
2022/07/14 03:50:55;;;;;;;3.10;1.70;;;;;12.90;97770.80;;;;111176;1247;41243;-73
2022/07/14 03:53:26;;;;;;;5.10;2.00;;;;;12.90;97769.20;;;;111119;1250;41609;-74
2022/07/14 03:55:57;;;;;;;4.10;1.90;;;;;12.88;97777.00;;;;110966;1250;41295;-75
2022/07/14 03:58:27;;;;;;;8.80;2.20;;;;;12.90;97777.80;;;;111194;1248;42103;-74
2022/07/14 04:00:57;;;;;;;4.30;2.00;;;;;12.92;97775.40;;;;111122;1249;41425;-73
2022/07/14 04:03:27;;;;;;;3.30;1.80;;;;;13.08;97778.40;;;;111115;1248;41385;-73
2022/07/14 04:05:58;;;;;;;4.80;2.00;;;;;13.20;97784.20;;;;111072;1250;41777;-74
2022/07/14 04:08:27;;;;;;;3.40;1.70;;;;;13.30;97783.60;;;;111182;1248;41601;-73
2022/07/14 04:11:02;;;;;;;5.90;2.50;;;;;13.40;97787.80;;;;111168;1247;41541;-75
2022/07/14 04:13:33;;;;;;;5.10;2.20;;;;;13.52;97793.20;;;;111167;1248;41152;-73
2022/07/14 04:16:03;;;;;;;4.50;2.10;;;;;13.60;97794.00;;;;111139;1248;42405;-75
2022/07/14 04:18:41;;;;;;;5.00;2.00;;;;;13.70;97787.20;;;;111235;1248;41171;-73
2022/07/14 04:21:14;;;;;;;6.40;2.40;;;;;13.82;97791.00;;;;111242;1248;41262;-74
2022/07/14 04:23:46;;;;;;;5.80;2.00;;;;;13.96;97799.40;;;;111122;1249;41182;-75
2022/07/14 04:26:17;;;;;;;3.80;1.80;;;;;14.28;97796.00;;;;110976;1251;41131;-75
2022/07/14 04:28:47;;;;;;;;;;;;;14.70;97791.40;;;;110980;1250;41231;-73
2022/07/14 04:31:20;;;;;;;7.80;2.00;;;;;15.00;97795.60;;;;111332;1247;41136;-74
2022/07/14 04:33:50;;;;;;;4.60;2.20;;;;;15.10;97803.20;;;;111181;1247;41137;-74
2022/07/14 04:36:20;;;;;;;5.70;2.50;;;;;15.10;97801.40;;;;111199;1248;41132;-73
2022/07/14 04:38:49;;;;;;;4.50;2.10;;;;;15.10;97802.20;;;;111413;1247;41155;-74
2022/07/14 04:41:19;;;;;;;4.40;2.10;;;;;15.20;97794.40;;;;111226;1247;41324;-75
2022/07/14 04:43:48;;;;;;;4.10;2.00;;;;;15.86;97792.00;;;;111142;1247;41948;-75
2022/07/14 04:46:18;;;;;;;5.10;2.20;;;;;16.68;97796.40;;;;111165;1247;41144;-72
2022/07/14 04:52:02;;;;;;;;;;;;;18.16;97787.00;;;;111359;1247;41240;-75
2022/07/14 04:54:48;;;;;;;7.80;2.00;;;;;19.06;97785.00;;;;111276;1247;41244;-74
2022/07/14 04:57:36;;;;;;;6.90;2.40;;;;;19.84;97775.80;;;;111188;1247;41707;-76
2022/07/14 05:00:10;;;;;;;4.70;2.10;;;;;20.44;97771.40;;;;111428;1247;41188;-74
2022/07/14 05:02:40;;;;;;;4.40;2.10;;;;;21.00;97763.60;;;;111214;1248;41178;-74
2022/07/14 05:05:09;;;;;;;3.60;1.80;;;;;21.30;97767.00;;;;111151;1247;41927;-74
2022/07/14 05:07:39;;;;;;;4.40;1.80;;;;;21.80;97761.60;;;;111175;1247;41513;-73
2022/07/14 05:10:10;;;;;;;3.00;1.70;;;;;22.30;97760.80;;;;111168;1249;41155;-74
2022/07/14 05:12:39;;;;;;;2.40;1.60;;;;;22.80;97756.80;;;;110971;1247;41253;-75
2022/07/14 05:15:09;;;;;;;2.40;1.50;;;;;23.20;97758.80;;;;111218;1247;42069;-74
2022/07/14 05:17:38;;;;;;;3.60;1.80;;;;;23.60;97758.80;;;;111138;1248;41392;-74
2022/07/14 05:20:12;;;;;;;3.10;1.60;;;;;24.04;97762.60;;;;111317;1247;41144;-74
2022/07/14 05:22:42;;;;;;;;;;;;;24.20;97770.80;;;;111246;1249;41615;-74
2022/07/14 05:25:14;;;;;;;2.20;1.40;;;;;24.30;97758.60;;;;111200;1247;42377;-74
2022/07/14 05:27:44;;;;;;;4.20;1.60;;;;;24.32;97767.80;;;;111029;1251;41155;-74
2022/07/14 05:30:26;;;;;;;2.90;1.40;;;;;24.64;97770.00;;;;111350;1247;41554;-76
2022/07/14 05:32:57;;;;;;;2.50;1.50;;;;;24.60;97766.00;;;;111245;1248;41933;-75
2022/07/14 05:35:27;;;;;;;2.80;1.50;;;;;24.50;97769.00;;;;111202;1248;41137;-74
2022/07/14 05:37:58;;;;;;;;;;;;;24.24;97779.40;;;;111362;1247;41134;-75
2022/07/14 05:40:27;;;;;;;3.60;1.50;;;;;24.00;97780.20;;;;111297;1247;41270;-74
2022/07/14 05:42:57;;;;;;;2.40;1.40;;;;;23.76;97786.60;;;;111377;1247;40915;-73
2022/07/14 05:45:27;;;;;;;8.90;1.70;;;;;23.52;97788.60;;;;111400;1247;41234;-75
2022/07/14 05:47:56;;;;;;;2.10;1.30;;;;;23.38;97790.20;;;;111207;1247;41543;-74
2022/07/14 05:50:25;;;;;;;2.30;1.30;;;;;23.20;97788.60;;;;111351;1247;41159;-74
2022/07/14 05:52:54;;;;;;;3.70;1.50;;;;;23.08;97796.60;;;;111275;1247;41996;-74
2022/07/14 05:55:24;;;;;;;4.30;1.60;;;;;22.90;97795.80;;;;111391;1247;41145;-74
2022/07/14 05:57:55;;;;;;;2.00;1.50;;;;;23.10;97793.00;;;;111365;1247;40900;-74
2022/07/14 06:00:24;;;;;;;3.10;1.40;;;;;23.80;97792.20;;;;111191;1247;41486;-74
2022/07/14 06:02:53;;;;;;;2.80;1.50;;;;;24.78;97793.20;;;;111164;1247;41479;-74
2022/07/14 06:05:27;;;;;;;4.20;1.50;;;;;25.64;97786.60;;;;111346;1247;41325;-76
2022/07/14 06:07:56;;;;;;;4.20;1.70;;;;;26.38;97781.00;;;;111293;1247;41348;-74
2022/07/14 06:10:26;;;;;;;3.90;1.60;;;;;26.90;97776.60;;;;111207;1248;41585;-75
2022/07/14 06:12:55;;;;;;;6.60;1.80;;;;;27.30;97781.20;;;;111268;1247;41477;-74
2022/07/14 06:15:25;;;;;;;4.80;1.80;;;;;27.28;97778.60;;;;111184;1247;41363;-73
2022/07/14 06:17:54;;;;;;;2.80;1.30;;;;;27.26;97781.40;;;;111187;1248;41723;-73
2022/07/14 06:20:23;;;;;;;3.40;1.40;;;;;27.36;97787.20;;;;111180;1247;41137;-73
2022/07/14 06:22:53;;;;;;;1.40;1.30;;;;;28.04;97781.00;;;;111300;1247;42275;-74
2022/07/14 06:25:22;;;;;;;1.90;1.30;;;;;28.82;97782.80;;;;111364;1247;41186;-74
2022/07/14 06:27:51;;;;;;;5.90;1.80;;;;;29.24;97781.40;;;;111157;1247;41824;-73
2022/07/14 06:30:20;;;;;;;4.20;1.60;;;;;29.02;97782.60;;;;111331;1247;41247;-74
2022/07/14 06:32:49;;;;;;;2.90;1.40;;;;;28.66;97779.20;;;;111283;1247;41267;-73
2022/07/14 06:35:18;;;;;;;2.30;1.30;;;;;28.42;97787.60;;;;111192;1249;41146;-73
2022/07/14 06:37:48;;;;;;;3.60;1.50;;;;;28.32;97786.40;;;;111188;1247;41731;-73
2022/07/14 06:40:17;;;;;;;3.60;1.40;;;;;28.16;97789.00;;;;111038;1248;41983;-74
2022/07/14 06:42:46;;;;;;;2.20;1.30;;;;;27.50;97794.40;;;;111362;1247;41145;-74
2022/07/14 06:45:35;;;;;;;6.50;1.70;;;;;27.24;97791.80;;;;111028;1249;41501;-74
2022/07/14 06:48:04;;;;;;;3.50;1.50;;;;;27.20;97793.40;;;;111221;1247;41122;-73
2022/07/14 06:50:34;;;;;;;4.70;1.40;;;;;26.78;97790.80;;;;111300;1247;41301;-73
2022/07/14 06:53:03;;;;;;;3.20;1.20;;;;;26.68;97793.20;;;;111305;1247;41715;-74
2022/07/14 06:55:32;;;;;;;5.20;1.60;;;;;26.60;97795.00;;;;111303;1247;41598;-73
2022/07/14 06:58:00;;;;;;;3.10;1.30;;;;;26.34;97797.60;;;;111181;1247;41149;-73
2022/07/14 07:00:30;;;;;;;1.60;1.20;;;;;26.42;97787.00;;;;111088;1249;41260;-74
2022/07/14 07:02:59;;;;;;;2.30;1.40;;;;;27.60;97785.00;;;;111195;1247;41124;-73
2022/07/14 07:08:15;;;;;;;2.00;1.10;;;;;29.70;97775.60;;;;111390;1247;41180;-73
2022/07/14 07:10:44;;;;;;;3.80;1.40;;;;;30.30;97761.00;;;;111145;1247;41263;-74
2022/07/14 07:13:13;;;;;;;3.30;1.40;;;;;30.66;97756.60;;;;111339;1247;41149;-73
2022/07/14 07:15:42;;;;;;;1.80;1.30;;;;;30.84;97758.60;;;;111214;1247;42139;-73
2022/07/14 07:18:11;;;;;;;2.10;1.40;;;;;30.64;97762.20;;;;111181;1249;41706;-74
2022/07/14 07:20:40;;;;;;;3.00;1.30;;;;;30.04;97774.40;;;;111191;1247;41880;-73
2022/07/14 07:23:09;;;;;;;5.60;1.40;;;;;29.12;97777.00;;;;111186;1249;41311;-71
2022/07/14 07:25:38;;;;;;;3.20;1.50;;;;;28.58;97775.40;;;;111421;1247;44065;-72
2022/07/14 07:28:07;;;;;;;2.20;1.30;;;;;28.32;97782.80;;;;111184;1247;42020;-73
2022/07/14 07:30:36;;;;;;;3.40;1.40;;;;;27.70;97777.40;;;;111244;1247;41286;-72
2022/07/14 07:33:06;;;;;;;4.70;1.40;;;;;27.10;97778.60;;;;111205;1248;41136;-72
2022/07/14 07:35:35;;;;;;;2.10;1.20;;;;;26.98;97775.60;;;;111388;1246;41470;-74
2022/07/14 07:38:07;;;;;;;3.00;1.20;;;;;27.00;97775.60;;;;111256;1247;41135;-73
2022/07/14 07:40:36;;;;;;;5.20;1.70;;;;;27.10;97779.20;;;;111390;1245;41910;-73
2022/07/14 07:43:05;;;;;;;5.00;1.80;;;;;27.10;97778.80;;;;110795;1247;584750;-72
2022/07/14 07:45:34;;;;;;;5.10;1.60;;;;;26.88;97773.20;;;;111194;1248;41125;-73
2022/07/14 07:48:04;;;;;;;5.20;1.50;;;;;26.60;97772.00;;;;111489;1245;41184;-73
2022/07/14 07:50:33;;;;;;;4.10;1.50;;;;;26.36;97774.40;;;;111353;1247;41631;-72
2022/07/14 07:53:04;;;;;;;3.60;1.40;;;;;26.10;97776.00;;;;111446;1247;41730;-72
2022/07/14 07:55:34;;;;;;;2.70;1.40;;;;;26.10;97774.60;;;;111435;1246;41256;-73
2022/07/14 07:58:09;;;;;;;2.70;1.30;;;;;26.10;97771.00;;;;111158;1249;41260;-73
2022/07/14 08:00:44;;;;;;;4.90;1.50;;;;;26.20;97769.00;;;;111235;1247;42281;-74
2022/07/14 08:03:14;;;;;;;3.00;1.40;;;;;26.20;97769.20;;;;111095;1248;41307;-74
2022/07/14 08:05:43;;;;;;;7.70;1.70;;;;;26.10;97765.20;;;;111119;1249;41157;-73
2022/07/14 08:08:19;;;;;;;5.20;1.60;;;;;26.00;97763.40;;;;111123;1248;40747;-74
2022/07/14 08:10:48;;;;;;;3.50;1.50;;;;;26.10;97763.80;;;;111113;1248;41263;-74
2022/07/14 08:13:17;;;;;;;2.80;1.50;;;;;26.00;97762.20;;;;111506;1247;41132;-71
2022/07/14 08:15:46;;;;;;;4.60;1.60;;;;;26.00;97758.60;;;;111180;1245;41141;-73
2022/07/14 08:18:16;;;;;;;4.80;1.50;;;;;26.00;97761.80;;;;111452;1247;42225;-73
2022/07/14 08:20:49;;;;;;;1.90;1.30;;;;;26.08;97756.60;;;;110728;1251;41140;-71
2022/07/14 08:23:28;;;;;;;2.50;1.40;;;;;26.30;97752.00;;;;111196;1247;41249;-71
2022/07/14 08:25:58;;;;;;;6.50;1.60;;;;;26.50;97755.20;;;;111598;1246;41260;-73
2022/07/14 08:28:26;;;;;;;6.20;1.90;;;;;26.70;97753.20;;;;111143;1249;41606;-73
2022/07/14 08:30:56;;;;;;;6.10;1.90;;;;;26.80;97751.80;;;;111329;1247;41137;-72
2022/07/14 08:33:25;;;;;;;6.00;1.80;;;;;26.80;97752.80;;;;111236;1244;41624;-74
2022/07/14 08:35:54;;;;;;;3.90;1.50;;;;;26.70;97750.00;;;;111187;1247;41281;-74
2022/07/14 08:38:23;;;;;;;3.70;1.60;;;;;26.68;97751.60;;;;111188;1246;41129;-75
2022/07/14 08:40:52;;;;;;;4.60;1.40;;;;;26.62;97746.60;;;;111103;1247;41368;-74
2022/07/14 08:43:21;;;;;;;3.90;1.50;;;;;26.80;97749.20;;;;111392;1245;42297;-75
2022/07/14 08:45:51;;;;;;;4.90;1.40;;;;;26.94;97744.00;;;;111142;1250;41182;-75
2022/07/14 08:48:20;;;;;;;4.90;1.60;;;;;27.20;97738.00;;;;111005;1247;41472;-74
2022/07/14 08:50:49;;;;;;;2.80;1.50;;;;;27.66;97738.20;;;;111067;1247;41772;-75
2022/07/14 08:53:19;;;;;;;3.40;1.70;;;;;27.74;97735.00;;;;111191;1247;41936;-77
2022/07/14 08:55:48;;;;;;;3.50;1.40;;;;;27.80;97736.00;;;;111179;1246;40814;-75
2022/07/14 08:58:17;;;;;;;4.90;1.60;;;;;27.90;97735.80;;;;111428;1246;41123;-75
2022/07/14 09:00:46;;;;;;;2.60;1.40;;;;;28.06;97728.80;;;;111409;1245;41246;-76
2022/07/14 09:03:16;;;;;;;3.60;1.50;;;;;28.10;97730.20;;;;111397;1247;42208;-73
2022/07/14 09:06:06;;;;;;;6.40;1.80;;;;;28.42;97723.80;;;;111251;1247;41253;-75
2022/07/14 09:08:55;;;;;;;7.10;1.90;;;;;28.70;97721.60;;;;111094;1248;41878;-74
2022/07/14 09:11:24;;;;;;;4.00;1.70;;;;;28.60;97724.60;;;;111267;1245;41663;-77
2022/07/14 09:13:53;;;;;;;3.80;1.60;;;;;28.70;97723.80;;;;111177;1246;41946;-76
2022/07/14 09:16:23;;;;;;;5.50;1.70;;;;;29.16;97720.40;;;;111124;1249;41700;-76
2022/07/14 09:19:05;;;;;;;;;;;;;29.28;97723.00;;;;111476;1246;41243;-76
2022/07/14 09:21:37;;;;;;;3.20;1.60;;;;;29.36;97715.20;;;;111169;1247;41435;-76
2022/07/14 09:24:10;;;;;;;4.50;1.70;;;;;30.14;97713.40;;;;111220;1247;41135;-77
2022/07/14 09:26:51;;;;;;;8.90;1.80;;;;;30.66;97710.60;;;;111429;1246;41183;-77
2022/07/14 09:29:23;;;;;;;4.00;1.60;;;;;30.66;97706.80;;;;111042;1248;41899;-77
2022/07/14 09:31:52;;;;;;;4.80;1.90;;;;;31.32;97706.00;;;;111277;1247;41189;-76
2022/07/14 09:34:28;;;;;;;10.90;1.80;;;;;31.96;97701.00;;;;111165;1247;41144;-79
2022/07/14 09:37:17;;;;;;;5.10;1.90;;;;;32.40;97700.20;;;;111264;1247;41139;-77
2022/07/14 09:39:54;;;;;;;3.30;1.50;;;;;33.22;97690.60;;;;111170;1248;40919;-72
2022/07/14 09:43:01;;;;;;;4.90;2.00;;;;;33.96;97685.80;;;;111451;1246;41148;-77
2022/07/14 09:45:32;;;;;;;7.40;2.30;;;;;34.56;97681.60;;;;111196;1247;41160;-73
2022/07/14 09:48:06;;;;;;;4.40;1.50;;;;;34.10;97680.00;;;;111176;1247;41140;-76
2022/07/14 09:50:39;;;;;;;4.20;1.70;;;;;34.12;97672.40;;;;111360;1247;41129;-77
2022/07/14 09:53:22;;;;;;;4.50;1.60;;;;;34.66;97669.40;;;;111356;1246;41145;-76
2022/07/14 09:55:56;;;;;;;3.10;1.30;;;;;35.14;97666.80;;;;111223;1247;41309;-76
2022/07/14 09:58:31;;;;;;;3.40;1.60;;;;;35.50;97656.80;;;;111451;1247;41162;-76
2022/07/14 10:01:11;;;;;;;4.60;1.40;;;;;35.60;97656.20;;;;111313;1247;41141;-74
2022/07/14 10:03:42;;;;;;;5.00;1.60;;;;;35.38;97658.60;;;;111211;1247;41511;-76
2022/07/14 10:06:13;;;;;;;2.60;1.30;;;;;35.02;97659.20;;;;111268;1247;41354;-77
2022/07/14 10:09:04;;;;;;;2.70;1.40;;;;;34.60;97660.40;;;;111112;1247;41222;-74
2022/07/14 10:11:33;;;;;;;6.60;1.40;;;;;34.54;97657.80;;;;111232;1247;41177;-76
2022/07/14 10:14:02;;;;;;;3.70;1.50;;;;;35.02;97661.20;;;;111150;1247;41389;-76
2022/07/14 10:16:33;;;;;;;5.30;1.80;;;;;35.30;97652.20;;;;111329;1247;41191;-76
2022/07/14 10:19:04;;;;;;;4.20;1.70;;;;;34.70;97655.20;;;;111225;1247;41353;-75
2022/07/14 10:21:45;;;;;;;4.50;1.50;;;;;34.20;97660.20;;;;111117;1247;41244;-77
2022/07/14 10:24:15;;;;;;;3.30;1.70;;;;;34.60;97654.40;;;;111225;1247;41255;-76
2022/07/14 10:26:45;;;;;;;4.40;1.90;;;;;35.00;97652.00;;;;111408;1246;41794;-76
2022/07/14 10:29:14;;;;;;;4.50;1.60;;;;;34.62;97647.80;;;;111258;1247;41156;-77
2022/07/14 10:31:53;;;;;;;2.90;1.50;;;;;34.50;97643.80;;;;111160;1248;41298;-75
2022/07/14 10:34:34;;;;;;;3.70;1.60;;;;;33.76;97646.80;;;;111167;1247;41246;-76
2022/07/14 10:37:09;;;;;;;3.50;1.50;;;;;33.90;97650.20;;;;111352;1247;41609;-75
2022/07/14 10:39:57;;;;;;;4.30;1.60;;;;;33.38;97641.60;;;;111059;1248;41690;-77
2022/07/14 10:43:04;;;;;;;4.00;1.50;;;;;32.86;97651.80;;;;111047;1250;41249;-76
2022/07/14 10:45:49;;;;;;;2.80;1.60;;;;;33.20;97649.20;;;;111099;1248;41639;-75
2022/07/14 10:48:31;;;;;;;3.50;1.70;;;;;33.44;97647.40;;;;110873;1250;42386;-75
2022/07/14 10:51:21;;;;;;;3.90;1.60;;;;;33.48;97637.80;;;;111331;1247;42284;-76
2022/07/14 10:54:11;;;;;;;1.40;1.20;;;;;33.16;97644.20;;;;111075;1247;41747;-76
2022/07/14 10:57:17;;;;;;;2.50;1.20;;;;;33.78;97641.40;;;;111077;1248;41164;-76
2022/07/14 10:59:47;;;;;;;4.10;1.70;;;;;34.74;97634.60;;;;111163;1248;41142;-76
2022/07/14 11:02:18;;;;;;;3.40;1.30;;;;;35.60;97629.20;;;;111105;1247;41533;-78
2022/07/14 11:05:12;;;;;;;2.40;1.40;;;;;34.94;97624.40;;;;110895;1248;41937;-77
2022/07/14 11:07:44;;;;;;;2.40;1.20;;;;;35.60;97616.00;;;;111089;1248;41349;-77
2022/07/14 11:10:17;;;;;;;2.10;1.30;;;;;35.92;97619.00;;;;111033;1248;42900;-76
2022/07/14 11:13:18;;;;;;;2.40;1.40;;;;;35.78;97617.40;;;;111192;1248;42415;-77
2022/07/14 11:15:58;;;;;;;2.60;1.30;;;;;37.22;97606.20;;;;110504;1257;41195;-77
2022/07/14 11:18:35;;;;;;;2.50;1.20;;;;;38.02;97604.60;;;;110543;1256;41170;-78
2022/07/14 11:21:18;;;;;;;2.00;1.10;;;;;39.02;97600.60;;;;110409;1257;41167;-77
2022/07/14 11:23:48;;;;;;;2.10;1.10;;;;;39.44;97591.20;;;;110545;1255;41441;-78
2022/07/14 11:26:32;;;;;;;1.10;1.00;;;;;39.50;97597.80;;;;110538;1256;42269;-77
2022/07/14 11:29:03;;;;;;;3.00;1.40;;;;;40.46;97590.00;;;;110550;1256;40969;-77
2022/07/14 11:31:52;;;;;;;3.00;1.20;;;;;41.50;97589.00;;;;110657;1254;41165;-78
2022/07/14 11:37:15;;;;;;;1.50;1.10;;;;;39.86;97597.20;;;;110526;1254;41168;-81
2022/07/14 11:40:43;;;;;;;2.00;1.00;;;;;39.28;97594.40;;;;110479;1256;42052;-79
2022/07/14 11:43:30;;;;;;;1.40;1.00;;;;;40.14;97583.40;;;;110498;1253;41778;-78
2022/07/14 11:46:04;;;;;;;2.30;1.20;;;;;40.92;97587.60;;;;110460;1256;41669;-76
2022/07/14 11:48:45;;;;;;;2.80;1.30;;;;;41.50;97585.40;;;;110382;1257;41617;-77
2022/07/14 11:51:17;;;;;;;1.80;1.20;;;;;41.18;97589.60;;;;110374;1247;41145;-77
2022/07/14 11:53:51;;;;;;;2.70;1.20;;;;;38.60;97590.00;;;;111148;1247;41259;-76
2022/07/14 11:56:24;;;;;;;2.60;1.20;;;;;36.08;97596.40;;;;111172;1248;41925;-78
2022/07/14 11:59:03;;;;;;;1.60;1.10;;;;;35.28;97594.20;;;;110972;1248;41151;-75
2022/07/14 12:01:35;;;;;;;2.30;1.10;;;;;35.46;97597.00;;;;111254;1247;41870;-76
2022/07/14 12:04:06;;;;;;;2.50;1.30;;;;;35.90;97597.40;;;;111579;1246;41146;-77
2022/07/14 12:06:38;;;;;;;8.30;1.60;;;;;35.82;97593.20;;;;111193;1247;41143;-76
2022/07/14 12:09:07;;;;;;;3.40;1.20;;;;;35.66;97586.80;;;;111217;1247;41146;-78
2022/07/14 12:11:56;;;;;;;3.70;1.30;;;;;36.12;97585.00;;;;111219;1245;41237;-73
2022/07/14 12:14:26;;;;;;;1.80;1.10;;;;;36.30;97591.40;;;;111203;1247;41273;-76
2022/07/14 12:16:55;;;;;;;2.40;1.30;;;;;36.24;97589.20;;;;111139;1248;41266;-74
2022/07/14 12:19:31;;;;;;;2.60;1.20;;;;;36.12;97585.20;;;;111225;1247;41133;-75
2022/07/14 12:22:03;;;;;;;3.00;1.20;;;;;35.20;97588.60;;;;111234;1247;41144;-76
2022/07/14 12:24:32;;;;;;;2.00;1.10;;;;;34.56;97587.60;;;;111193;1247;41271;-73
2022/07/14 12:27:05;;;;;;;;;;;;;34.02;97593.60;;;;111209;1247;42064;-76
2022/07/14 12:29:36;;;;;;;4.00;1.10;;;;;34.02;97593.80;;;;111483;1246;41707;-73
2022/07/14 12:32:07;;;;;;;2.30;1.30;;;;;34.00;97595.80;;;;111231;1247;41143;-75
2022/07/14 12:34:37;;;;;;;4.20;1.50;;;;;33.58;97594.20;;;;111222;1247;41526;-76
2022/07/14 12:37:06;;;;;;;1.20;1.10;;;;;32.96;97593.60;;;;111134;1248;41200;-75
2022/07/14 12:39:35;;;;;;;2.00;1.20;;;;;32.20;97591.80;;;;111167;1247;41273;-75
2022/07/14 12:42:04;;;;;;;3.60;1.30;;;;;32.34;97584.40;;;;110905;1245;42363;-77
2022/07/14 12:44:56;;;;;;;2.90;1.40;;;;;32.50;97579.40;;;;111279;1245;41142;-76
2022/07/14 12:47:25;;;;;;;2.70;1.20;;;;;32.60;97576.60;;;;111529;1246;41148;-75
2022/07/14 12:49:54;;;;;;;2.00;1.20;;;;;32.48;97577.80;;;;111523;1246;41759;-74